createdAt,value
2023-05-17T00:01:45.816Z,98489.48
2023-05-17T00:04:38.736Z,98496.68
2023-05-17T00:07:33.664Z,98502.20
2023-05-17T00:10:26.436Z,98495.52
2023-05-17T00:13:21.815Z,98490.42
2023-05-17T00:16:14.950Z,98491.48
2023-05-17T00:19:02.037Z,98493.02
2023-05-17T00:21:54.701Z,98488.70
2023-05-17T00:24:41.726Z,98482.65
2023-05-17T00:27:27.442Z,98479.45
2023-05-17T00:30:21.968Z,98484.03
2023-05-17T00:32:56.284Z,98482.88
2023-05-17T00:35:29.305Z,98478.88
2023-05-17T00:38:02.097Z,98483.83
2023-05-17T00:40:36.232Z,98486.77
2023-05-17T00:43:10.646Z,98495.23
2023-05-17T00:45:43.060Z,98495.02
2023-05-17T00:48:16.257Z,98503.48
2023-05-17T00:50:49.845Z,98503.42
2023-05-17T00:53:24.292Z,98509.00
2023-05-17T00:55:57.151Z,98506.79
2023-05-17T00:58:29.763Z,98508.33
2023-05-17T01:01:03.078Z,98506.48
2023-05-17T01:03:35.643Z,98508.41
2023-05-17T01:06:09.884Z,98510.71
2023-05-17T01:08:42.630Z,98507.55
2023-05-17T01:26:38.962Z,98499.70
2023-05-17T01:29:26.115Z,98495.20
2023-05-17T01:32:19.475Z,98495.86
2023-05-17T01:35:14.135Z,98492.65
2023-05-17T01:37:50.948Z,98491.15
2023-05-17T01:40:38.095Z,98494.77
2023-05-17T01:43:39.497Z,98494.42
2023-05-17T01:46:17.799Z,98495.30
2023-05-17T01:49:17.927Z,98494.20
2023-05-17T01:52:05.216Z,98490.74
2023-05-17T01:54:54.456Z,98492.89
2023-05-17T01:57:39.652Z,98492.77
2023-05-17T02:00:32.873Z,98493.72
2023-05-17T02:03:07.525Z,98491.65
2023-05-17T02:06:00.255Z,98494.56
2023-05-17T02:08:53.757Z,98494.45
2023-05-17T02:11:47.156Z,98498.05
2023-05-17T02:14:41.845Z,98500.30
2023-05-17T02:17:35.142Z,98504.23
2023-05-17T02:20:29.314Z,98504.47
2023-05-17T02:23:22.612Z,98504.84
2023-05-17T02:27:16.871Z,98503.91
2023-05-17T02:29:31.001Z,98499.54
2023-05-17T02:32:24.043Z,98497.97
2023-05-17T02:35:16.715Z,98494.52
2023-05-17T02:38:00.465Z,98488.80
2023-05-17T02:40:53.104Z,98494.32
2023-05-17T02:43:38.641Z,98493.39
2023-05-17T02:46:21.610Z,98499.31
2023-05-17T02:49:14.279Z,98499.11
2023-05-17T02:52:07.660Z,98500.86
2023-05-17T02:55:00.102Z,98503.00
2023-05-17T02:57:52.672Z,98497.36
2023-05-17T03:00:27.330Z,98500.91
2023-05-17T03:03:00.028Z,98500.88
2023-05-17T03:05:32.574Z,98507.71
2023-05-17T03:08:05.242Z,98507.36
2023-05-17T03:10:40.656Z,98509.03
2023-05-17T03:13:14.027Z,98508.40
2023-05-17T03:15:46.905Z,98511.42
2023-05-17T03:18:20.020Z,98509.48
2023-05-17T03:20:53.459Z,98504.19
2023-05-17T03:23:27.670Z,98504.65
2023-05-17T03:26:04.851Z,98505.95
2023-05-17T03:28:42.100Z,98510.66
2023-05-17T03:31:15.152Z,98509.41
2023-05-17T03:33:47.822Z,98513.19
2023-05-17T03:36:21.119Z,98516.27
2023-05-17T03:38:53.668Z,98521.54
2023-05-17T03:41:26.281Z,98525.65
2023-05-17T03:43:59.167Z,98526.92
2023-05-17T03:46:32.000Z,98523.30
2023-05-17T03:49:04.462Z,98531.15
2023-05-17T03:51:38.277Z,98536.16
2023-05-17T03:54:12.119Z,98540.91
2023-05-17T03:56:47.212Z,98541.83
2023-05-17T03:59:20.059Z,98548.18
2023-05-17T04:01:52.960Z,98549.45
2023-05-17T04:04:25.766Z,98554.81
2023-05-17T04:06:58.846Z,98558.23
2023-05-17T04:09:35.175Z,98557.56
2023-05-17T04:12:09.240Z,98558.98
2023-05-17T04:14:41.645Z,98559.98
2023-05-17T04:17:16.324Z,98564.04
2023-05-17T04:19:49.884Z,98567.00
2023-05-17T04:22:23.130Z,98566.27
2023-05-17T04:24:55.688Z,98572.41
2023-05-17T04:27:29.793Z,98575.50
2023-05-17T04:30:02.345Z,98578.14
2023-05-17T04:32:36.070Z,98581.73
2023-05-17T04:35:09.419Z,98582.48
2023-05-17T04:37:42.044Z,98590.00
2023-05-17T04:40:24.787Z,98594.13
2023-05-17T04:42:57.591Z,98598.02
2023-05-17T04:45:31.233Z,98596.48
2023-05-17T04:48:06.426Z,98598.38
2023-05-17T04:51:01.608Z,98599.73
2023-05-17T04:53:54.967Z,98601.19
2023-05-17T04:56:47.480Z,98600.63
2023-05-17T04:59:41.540Z,98600.05
2023-05-17T05:02:34.385Z,98597.47
2023-05-17T05:05:17.524Z,98596.12
2023-05-17T05:08:10.156Z,98594.05
2023-05-17T05:10:57.274Z,98588.59
2023-05-17T05:13:49.813Z,98579.52
2023-05-17T05:16:42.705Z,98583.94
2023-05-17T05:19:36.030Z,98595.30
2023-05-17T05:22:29.828Z,98599.16
2023-05-17T05:25:15.611Z,98588.08
2023-05-17T05:28:08.505Z,98577.82
2023-05-17T05:30:51.921Z,98576.01
2023-05-17T05:33:43.480Z,98585.52
2023-05-17T05:36:36.139Z,98593.42
2023-05-17T05:39:29.201Z,98596.31
2023-05-17T05:42:22.177Z,98598.08
2023-05-17T05:45:15.667Z,98604.84
2023-05-17T05:48:01.799Z,98603.44
2023-05-17T05:50:54.745Z,98602.53
2023-05-17T05:53:48.262Z,98608.92
2023-05-17T05:56:44.130Z,98620.51
2023-05-17T05:59:30.219Z,98636.45
2023-05-17T06:02:23.006Z,98637.14
2023-05-17T06:05:09.503Z,98642.70
2023-05-17T06:08:02.396Z,98649.05
2023-05-17T06:10:55.205Z,98645.08
2023-05-17T06:13:47.863Z,98650.66
2023-05-17T06:16:40.564Z,98653.50
2023-05-17T06:19:26.439Z,98652.27
2023-05-17T06:22:19.311Z,98658.55
2023-05-17T06:25:10.460Z,98658.88
2023-05-17T06:28:03.929Z,98666.21
2023-05-17T06:30:56.991Z,98663.50
2023-05-17T06:33:49.706Z,98662.38
2023-05-17T06:36:42.182Z,98666.52
2023-05-17T06:39:35.129Z,98666.83
2023-05-17T06:42:27.869Z,98670.09
2023-05-17T06:45:20.354Z,98669.26
2023-05-17T06:47:53.070Z,98667.70
2023-05-17T06:50:45.955Z,98670.46
2023-05-17T06:53:27.314Z,98674.83
2023-05-17T06:56:11.393Z,98678.89
2023-05-17T06:59:04.078Z,98675.35
2023-05-17T07:01:56.929Z,98680.49
2023-05-17T07:04:49.818Z,98683.10
2023-05-17T07:07:42.595Z,98683.39
2023-05-17T07:10:35.158Z,98683.27
2023-05-17T07:13:21.023Z,98682.20
2023-05-17T07:16:13.871Z,98689.71
2023-05-17T07:18:46.622Z,98687.15
2023-05-17T07:21:19.110Z,98687.61
2023-05-17T07:24:02.928Z,98691.45
2023-05-17T07:26:38.337Z,98694.16
2023-05-17T07:29:14.323Z,98697.80
2023-05-17T07:31:46.787Z,98699.92
2023-05-17T07:34:21.231Z,98699.08
2023-05-17T07:36:53.724Z,98700.95
2023-05-17T07:39:29.501Z,98702.83
2023-05-17T07:42:03.291Z,98704.23
2023-05-17T07:44:50.117Z,98710.63
2023-05-17T07:47:31.190Z,98714.91
2023-05-17T07:50:07.101Z,98716.50
2023-05-17T07:52:59.783Z,98723.40
2023-05-17T07:55:43.132Z,98726.36
2023-05-17T07:58:26.194Z,98724.45
2023-05-17T08:01:02.436Z,98731.70
2023-05-17T08:03:54.013Z,98733.20
2023-05-17T08:06:29.443Z,98735.29
2023-05-17T08:09:17.462Z,98739.48
2023-05-17T08:11:49.984Z,98738.59
2023-05-17T08:14:27.370Z,98740.89
2023-05-17T08:17:00.333Z,98739.64
2023-05-17T08:19:33.061Z,98741.64
2023-05-17T08:22:07.105Z,98738.54
2023-05-17T08:24:42.262Z,98742.29
2023-05-17T08:27:15.165Z,98745.42
2023-05-17T08:29:48.138Z,98749.10
2023-05-17T08:32:21.312Z,98745.96
2023-05-17T08:34:53.746Z,98750.06
2023-05-17T08:37:30.462Z,98752.64
2023-05-17T08:40:03.241Z,98751.83
2023-05-17T08:42:38.211Z,98760.17
2023-05-17T08:45:32.748Z,98771.55
2023-05-17T08:48:26.722Z,98782.20
2023-05-17T08:51:20.760Z,98782.73
2023-05-17T08:54:14.555Z,98780.72
2023-05-17T08:57:08.228Z,98774.57
2023-05-17T09:00:01.608Z,98767.40
2023-05-17T09:02:46.112Z,98772.77
2023-05-17T09:05:37.958Z,98774.14
2023-05-17T09:08:27.178Z,98777.67
2023-05-17T09:11:28.393Z,98773.18
2023-05-17T09:14:22.032Z,98764.34
2023-05-17T09:16:59.236Z,98772.41
2023-05-17T09:19:53.490Z,98772.48
2023-05-17T09:22:46.794Z,98774.58
2023-05-17T09:25:48.021Z,98776.55
2023-05-17T09:28:30.119Z,98782.02
2023-05-17T09:31:24.128Z,98784.89
2023-05-17T09:34:07.371Z,98782.59
2023-05-17T09:36:51.677Z,98783.23
2023-05-17T09:39:46.375Z,98775.27
2023-05-17T09:42:39.700Z,98772.45
2023-05-17T09:45:34.659Z,98770.85
2023-05-17T09:48:22.621Z,98774.62
2023-05-17T09:51:07.475Z,98775.48
2023-05-17T09:54:11.755Z,98777.59
2023-05-17T09:57:09.924Z,98782.23
2023-05-17T09:59:48.297Z,98786.55
2023-05-17T10:02:42.429Z,98788.01
2023-05-17T10:05:24.408Z,98786.25
2023-05-17T10:08:00.730Z,98784.02
2023-05-17T10:10:54.538Z,98784.11
2023-05-17T10:13:35.870Z,98786.07
2023-05-17T10:16:29.487Z,98783.04
2023-05-17T10:19:16.633Z,98784.72
2023-05-17T10:22:21.825Z,98786.00
2023-05-17T10:25:19.386Z,98784.27
2023-05-17T10:27:53.545Z,98779.59
2023-05-17T10:30:37.436Z,98781.33
2023-05-17T10:33:20.663Z,98783.13
2023-05-17T10:35:58.064Z,98784.44
2023-05-17T10:38:43.088Z,98792.84
2023-05-17T10:41:24.011Z,98800.83
2023-05-17T10:43:57.926Z,98802.59
2023-05-17T10:46:58.569Z,98801.84
2023-05-17T10:49:36.612Z,98802.95
2023-05-17T10:52:19.509Z,98805.02
2023-05-17T10:55:01.143Z,98803.33
2023-05-17T11:00:32.641Z,98809.25
2023-05-17T11:03:20.407Z,98810.54
2023-05-17T11:06:25.385Z,98813.98
2023-05-17T11:09:17.707Z,98812.85
2023-05-17T11:15:08.279Z,98819.66
2023-05-17T11:18:02.260Z,98826.67
2023-05-17T11:21:10.507Z,98824.73
2023-05-17T11:24:05.568Z,98821.81
2023-05-17T11:27:02.303Z,98823.11
2023-05-17T11:29:50.988Z,98818.67
2023-05-17T11:32:38.095Z,98814.19
2023-05-17T11:35:34.158Z,98816.02
2023-05-17T11:38:21.884Z,98816.00
2023-05-17T11:41:27.113Z,98812.63
2023-05-17T11:44:30.868Z,98816.33
2023-05-17T11:47:24.695Z,98820.88
2023-05-17T11:50:20.510Z,98824.66
2023-05-17T11:53:13.763Z,98828.63
2023-05-17T11:55:48.603Z,98826.79
2023-05-17T11:58:42.758Z,98824.55
2023-05-17T12:01:47.414Z,98823.44
2023-05-17T12:04:43.154Z,98825.31
2023-05-17T12:07:29.792Z,98827.71
2023-05-17T12:10:22.896Z,98832.80
2023-05-17T12:13:08.247Z,98838.71
2023-05-17T12:15:43.050Z,98840.03
2023-05-17T12:18:43.955Z,98839.45
2023-05-17T12:21:21.560Z,98841.91
2023-05-17T12:24:14.571Z,98844.63
2023-05-17T12:26:59.106Z,98842.50
2023-05-17T12:29:34.084Z,98844.75
2023-05-17T12:32:27.268Z,98840.94
2023-05-17T12:35:20.198Z,98841.60
2023-05-17T12:37:53.215Z,98840.95
2023-05-17T12:40:47.337Z,98839.46
2023-05-17T12:43:30.175Z,98842.73
2023-05-17T12:46:20.865Z,98849.70
2023-05-17T12:49:13.802Z,98854.81
2023-05-17T12:52:08.191Z,98854.38
2023-05-17T12:55:05.601Z,98854.64
2023-05-17T12:57:58.489Z,98860.13
2023-05-17T13:01:07.946Z,98861.80
2023-05-17T13:03:40.757Z,98863.23
2023-05-17T13:06:27.015Z,98872.40
2023-05-17T13:09:07.710Z,98872.45
2023-05-17T13:12:01.379Z,98872.09
2023-05-17T13:14:55.165Z,98871.64
2023-05-17T13:17:43.279Z,98862.48
2023-05-17T13:20:29.954Z,98855.11
2023-05-17T13:23:02.773Z,98850.83
2023-05-17T13:25:56.068Z,98851.77
2023-05-17T13:28:28.785Z,98848.55
2023-05-17T13:31:13.378Z,98850.84
2023-05-17T13:33:50.312Z,98849.08
2023-05-17T13:36:24.214Z,98851.46
2023-05-17T13:39:09.658Z,98846.39
2023-05-17T13:41:45.502Z,98852.19
2023-05-17T13:44:20.814Z,98854.72
2023-05-17T13:46:56.559Z,98858.61
2023-05-17T13:49:29.502Z,98859.83
2023-05-17T13:52:08.670Z,98867.79
2023-05-17T13:54:41.625Z,98873.16
2023-05-17T13:57:17.557Z,98880.66
2023-05-17T13:59:50.553Z,98882.40
2023-05-17T14:02:43.578Z,98889.92
2023-05-17T14:05:26.938Z,98892.63
2023-05-17T14:08:01.311Z,98899.52
2023-05-17T14:10:39.103Z,98901.05
2023-05-17T14:13:31.869Z,98904.45
2023-05-17T14:16:15.557Z,98912.42
2023-05-17T14:18:48.131Z,98927.55
2023-05-17T14:21:21.105Z,98938.18
2023-05-17T14:23:53.775Z,98938.77
2023-05-17T14:26:27.251Z,98928.35
2023-05-17T14:28:59.935Z,98921.60
2023-05-17T14:31:42.504Z,98925.66
2023-05-17T14:34:17.563Z,98930.14
2023-05-17T14:36:55.202Z,98935.98
2023-05-17T14:39:33.659Z,98935.41
2023-05-17T14:42:07.225Z,98937.63
2023-05-17T14:44:52.814Z,98938.64
2023-05-17T14:47:39.807Z,98944.23
2023-05-17T14:50:23.487Z,98952.69
2023-05-17T14:52:56.540Z,98946.84
2023-05-17T14:55:30.383Z,98945.63
2023-05-17T14:58:03.068Z,98944.56
2023-05-17T15:00:35.703Z,98939.96
2023-05-17T15:03:09.536Z,98934.84
2023-05-17T15:05:42.603Z,98927.86
2023-05-17T15:08:15.363Z,98928.23
2023-05-17T15:10:49.402Z,98927.52
2023-05-17T15:13:23.554Z,98930.28
2023-05-17T15:15:56.293Z,98931.10
2023-05-17T15:18:29.070Z,98933.61
2023-05-17T15:21:03.005Z,98939.90
2023-05-17T15:23:37.213Z,98943.05
2023-05-17T15:26:09.515Z,98943.25
2023-05-17T15:28:42.156Z,98948.82
2023-05-17T15:31:14.916Z,98952.45
2023-05-17T15:33:49.832Z,98955.26
2023-05-17T15:36:28.356Z,98955.85
2023-05-17T15:39:01.340Z,98956.39
2023-05-17T15:41:34.482Z,98959.05
2023-05-17T15:44:09.097Z,98966.77
2023-05-17T15:46:45.516Z,98969.84
2023-05-17T15:49:21.613Z,98966.98
2023-05-17T15:52:15.154Z,98973.02
2023-05-17T15:54:54.216Z,98977.94
2023-05-17T15:57:26.823Z,98976.17
2023-05-17T16:00:20.299Z,98978.46
2023-05-17T16:02:57.274Z,98979.73
2023-05-17T16:05:33.968Z,98980.36
2023-05-17T16:08:26.936Z,98978.45
2023-05-17T16:11:12.819Z,98983.45
2023-05-17T16:13:47.795Z,98983.92
2023-05-17T16:16:30.453Z,98988.48
2023-05-17T16:19:17.030Z,98987.98
2023-05-17T16:22:01.883Z,98995.44
2023-05-17T16:24:35.603Z,99001.36
2023-05-17T16:27:15.886Z,99008.58
2023-05-17T16:30:13.157Z,99014.36
2023-05-17T16:33:08.362Z,99023.52
2023-05-17T16:36:02.654Z,99025.95
2023-05-17T16:38:55.430Z,99032.23
2023-05-17T16:41:51.154Z,99047.11
2023-05-17T16:44:43.893Z,99053.86
2023-05-17T16:47:37.368Z,99057.99
2023-05-17T16:50:30.482Z,99063.52
2023-05-17T16:53:23.661Z,99063.56
2023-05-17T16:56:16.677Z,99069.24
2023-05-17T16:58:59.150Z,99078.81
2023-05-17T17:01:52.164Z,99083.77
2023-05-17T17:04:45.239Z,99086.95
2023-05-17T17:07:38.312Z,99093.44
2023-05-17T17:10:12.191Z,99093.11
2023-05-17T17:12:48.297Z,99100.89
2023-05-17T17:15:31.065Z,99110.05
2023-05-17T17:18:26.269Z,99113.05
2023-05-17T17:21:19.438Z,99116.04
2023-05-17T17:24:12.677Z,99116.02
2023-05-17T17:26:50.006Z,99118.69
2023-05-17T17:29:35.532Z,99119.91
2023-05-17T17:32:10.492Z,99119.94
2023-05-17T17:35:03.472Z,99127.05
2023-05-17T17:37:58.517Z,99134.36
2023-05-17T17:40:51.176Z,99132.33
2023-05-17T17:43:33.803Z,99140.02
2023-05-17T17:46:26.507Z,99142.41
2023-05-17T17:49:19.097Z,99149.06
2023-05-17T17:52:03.078Z,99148.99
2023-05-17T17:54:46.399Z,99154.69
2023-05-17T17:57:38.789Z,99159.30
2023-05-17T18:00:31.747Z,99165.70
2023-05-17T18:03:19.200Z,99169.47
2023-05-17T18:06:12.912Z,99167.27
2023-05-17T18:09:08.429Z,99171.41
2023-05-17T18:11:44.527Z,99175.70
2023-05-17T18:14:31.037Z,99175.77
2023-05-17T18:17:24.084Z,99176.05
2023-05-17T18:20:17.410Z,99183.70
2023-05-17T18:23:10.460Z,99194.97
2023-05-17T18:25:43.040Z,99199.14
2023-05-17T18:28:42.523Z,99201.87
2023-05-17T18:31:36.692Z,99202.67
2023-05-17T18:34:26.805Z,99206.24
2023-05-17T18:37:00.216Z,99210.86
2023-05-17T18:39:32.658Z,99214.75
2023-05-17T18:42:05.443Z,99217.79
2023-05-17T18:44:38.474Z,99220.83
2023-05-17T18:47:12.202Z,99228.42
2023-05-17T18:49:47.135Z,99234.09
2023-05-17T18:52:19.820Z,99240.24
2023-05-17T18:54:52.149Z,99246.38
2023-05-17T18:57:25.278Z,99251.15
2023-05-17T18:59:59.957Z,99253.63
2023-05-17T19:02:32.581Z,99254.54
2023-05-17T19:05:05.527Z,99253.68
2023-05-17T19:07:38.393Z,99257.55
2023-05-17T19:10:13.903Z,99262.46
2023-05-17T19:12:46.537Z,99263.72
2023-05-17T19:15:19.380Z,99265.65
2023-05-17T19:17:52.224Z,99270.23
2023-05-17T19:20:25.184Z,99269.70
2023-05-17T19:23:00.852Z,99272.86
2023-05-17T19:25:33.623Z,99270.41
2023-05-17T19:28:06.780Z,99271.30
2023-05-17T19:30:40.021Z,99272.75
2023-05-17T19:33:15.458Z,99278.05
2023-05-17T19:35:52.308Z,99284.19
2023-05-17T19:38:24.922Z,99287.17
2023-05-17T19:40:59.097Z,99289.64
2023-05-17T19:43:35.896Z,99297.39
2023-05-17T19:46:10.818Z,99300.07
2023-05-17T19:48:43.599Z,99298.69
2023-05-17T19:51:16.557Z,99297.83
2023-05-17T19:53:53.511Z,99296.09
2023-05-17T19:56:27.233Z,99298.38
2023-05-17T19:59:00.013Z,99294.88
2023-05-17T20:01:33.271Z,99296.66
2023-05-17T20:04:07.522Z,99298.45
2023-05-17T20:06:50.732Z,99298.77
2023-05-17T20:09:26.908Z,99299.67
2023-05-17T20:12:00.215Z,99298.28
2023-05-17T20:14:36.093Z,99305.33
2023-05-17T20:17:08.961Z,99309.38
2023-05-17T20:19:44.706Z,99311.85
2023-05-17T20:22:17.380Z,99314.30
2023-05-17T20:24:55.821Z,99315.89
2023-05-17T20:27:30.694Z,99320.45
2023-05-17T20:30:03.337Z,99325.52
2023-05-17T20:32:36.719Z,99328.17
2023-05-17T20:35:12.200Z,99329.22
2023-05-17T20:37:47.452Z,99327.10
2023-05-17T20:40:21.016Z,99324.12
2023-05-17T20:42:56.744Z,99329.91
2023-05-17T20:45:30.950Z,99332.55
2023-05-17T20:48:23.541Z,99335.89
2023-05-17T20:51:19.595Z,99335.70
2023-05-17T20:53:52.783Z,99341.48
2023-05-17T20:56:45.657Z,99339.57
2023-05-17T20:59:39.545Z,99342.73
2023-05-17T21:02:26.171Z,99344.33
2023-05-17T21:05:19.916Z,99347.14
2023-05-17T21:08:13.549Z,99351.36
2023-05-17T21:10:53.703Z,99353.64
2023-05-17T21:13:46.564Z,99356.98
2023-05-17T21:16:39.902Z,99357.87
2023-05-17T21:19:32.707Z,99363.66
2023-05-17T21:22:25.582Z,99364.90
2023-05-17T21:25:16.619Z,99365.25
2023-05-17T21:28:00.600Z,99367.52
2023-05-17T21:30:54.663Z,99369.45
2023-05-17T21:33:31.964Z,99373.85
2023-05-17T21:36:25.063Z,99375.23
2023-05-17T21:39:18.165Z,99375.95
2023-05-17T21:42:11.808Z,99377.17
2023-05-17T21:45:03.505Z,99375.96
2023-05-17T21:47:56.122Z,99380.70
2023-05-17T21:50:42.151Z,99383.00
2023-05-17T21:53:37.372Z,99380.38
2023-05-17T21:56:30.582Z,99383.89
2023-05-17T21:59:25.036Z,99387.58
2023-05-17T22:02:17.015Z,99384.77
2023-05-17T22:04:59.960Z,99382.83
2023-05-17T22:07:46.134Z,99383.73
2023-05-17T22:10:41.872Z,99380.21
2023-05-17T22:13:27.709Z,99382.66
2023-05-17T22:16:18.719Z,99383.19
2023-05-17T22:19:12.550Z,99384.06
2023-05-17T22:22:07.813Z,99384.95
2023-05-17T22:24:51.209Z,99389.52
2023-05-17T22:27:43.302Z,99389.15
2023-05-17T22:30:36.934Z,99392.48
2023-05-17T22:33:31.168Z,99389.15
2023-05-17T22:36:24.925Z,99389.33
2023-05-17T22:39:18.170Z,99392.30
2023-05-17T22:42:05.041Z,99390.38
2023-05-17T22:44:51.572Z,99391.79
2023-05-17T22:47:46.677Z,99389.50
2023-05-17T22:50:41.215Z,99390.54
2023-05-17T22:53:18.809Z,99392.10
2023-05-17T22:56:12.007Z,99389.84
2023-05-17T22:59:04.991Z,99391.23
2023-05-17T23:01:40.311Z,99395.08
2023-05-17T23:04:33.247Z,99397.19
2023-05-17T23:07:27.991Z,99402.80
2023-05-17T23:10:15.215Z,99404.73
2023-05-17T23:13:02.084Z,99405.98
2023-05-17T23:15:56.212Z,99409.65
2023-05-17T23:18:42.913Z,99407.02
2023-05-17T23:21:39.680Z,99408.75
2023-05-17T23:24:23.330Z,99409.12
2023-05-17T23:27:10.062Z,99410.88
2023-05-17T23:30:04.621Z,99414.39
2023-05-17T23:32:50.579Z,99420.53
2023-05-17T23:35:43.192Z,99418.45
2023-05-17T23:38:28.930Z,99421.94
2023-05-17T23:41:25.354Z,99422.66
2023-05-17T23:44:18.977Z,99420.04
2023-05-17T23:47:10.303Z,99425.30
2023-05-17T23:50:04.195Z,99425.66
2023-05-17T23:52:50.747Z,99426.55
2023-05-17T23:55:43.303Z,99427.06
2023-05-17T23:58:36.355Z,99429.54
